Time;durP1;ratioP1;P1;durP2;ratioP2;P2;SDS_P1;SDS_P2;PMS_P1;PMS_P2;Temp;Humidity;BMP_temperature;BMP_pressure;BME280_temperature;BME280_humidity;BME280_pressure;Samples;Min_cycle;Max_cycle;Signal;HPM_P1;HPM_P2
2021/01/22 00:01:34;;;;;;;21.63;7.67;;;;;;;18.86;44.54;98234.22;5111728;28;20043;-66
2021/01/22 00:03:59;;;;;;;17.60;8.00;;;;;;;16.83;50.88;98245.47;5077239;28;20031;-67
2021/01/22 00:06:25;;;;;;;18.37;7.30;;;;;;;17.41;48.76;98248.63;5111797;28;20043;-67
2021/01/22 00:08:50;;;;;;;19.43;6.87;;;;;;;18.23;47.30;98245.13;5111723;28;20052;-67
2021/01/22 00:11:16;;;;;;;11.73;5.23;;;;;;;16.63;51.70;98269.88;5093158;28;20042;-66
2021/01/22 00:13:42;;;;;;;17.33;6.00;;;;;;;16.75;50.64;98249.72;5091501;28;20507;-66
2021/01/22 00:16:07;;;;;;;7.63;3.63;;;;;;;16.49;50.87;98269.88;5054657;28;20036;-67
2021/01/22 00:18:33;;;;;;;22.43;5.27;;;;;;;16.73;50.33;98279.69;5070992;28;20044;-66
2021/01/22 00:20:58;;;;;;;8.15;3.75;;;;;;;17.26;49.02;98274.09;5053623;28;20043;-67
2021/01/22 00:23:24;;;;;;;8.33;5.10;;;;;;;15.44;53.58;98290.63;5036351;28;20619;-66
2021/01/22 00:25:50;;;;;;;10.10;4.93;;;;;;;15.58;53.49;98296.09;5055116;28;20051;-66
2021/01/22 00:28:16;;;;;;;9.80;3.80;;;;;;;14.30;59.53;98301.78;5075028;28;20033;-61
2021/01/22 00:30:41;;;;;;;9.48;4.38;;;;;;;14.95;59.19;98305.22;5086000;28;20044;-66
2021/01/22 00:33:07;;;;;;;10.03;4.20;;;;;;;15.58;56.01;98312.25;5095850;28;20485;-68
2021/01/22 00:35:32;;;;;;;9.63;4.50;;;;;;;15.42;55.00;98318.91;5094838;28;20438;-66
2021/01/22 00:37:58;;;;;;;13.10;4.50;;;;;;;15.17;55.00;98331.59;5077750;28;20165;-67
2021/01/22 00:40:23;;;;;;;9.57;5.07;;;;;;;14.73;57.74;98330.75;5095119;28;20067;-66
2021/01/22 00:42:49;;;;;;;12.88;6.03;;;;;;;14.41;57.27;98335.56;5095724;28;20039;-66
2021/01/22 00:45:14;;;;;;;17.90;7.07;;;;;;;13.83;64.49;98350.50;5077394;28;20131;-65
2021/01/22 00:47:40;;;;;;;16.20;8.23;;;;;;;13.81;62.16;98349.97;5094986;28;20040;-67
2021/01/22 00:50:06;;;;;;;13.03;6.87;;;;;;;14.08;62.22;98359.50;5077175;28;20101;-66
2021/01/22 00:52:32;;;;;;;21.17;7.35;;;;;;;14.83;57.29;98357.53;5076327;28;20130;-66
2021/01/22 00:55:00;;;;;;;17.55;7.85;;;;;;;15.00;57.42;98359.00;5060901;28;20055;-65
2021/01/22 00:57:57;;;;;;;14.43;8.02;;;;;;;13.87;62.14;98391.88;5081468;28;20036;-66
2021/01/22 01:00:29;;;;;;;18.30;8.10;;;;;;;14.34;59.50;98384.28;5076277;28;20177;-66
2021/01/22 01:03:13;;;;;;;21.67;9.38;;;;;;;14.50;60.07;98394.94;5077260;28;20364;-66
2021/01/22 01:05:38;;;;;;;23.57;9.00;;;;;;;14.66;57.92;98398.28;5094465;28;20165;-67
2021/01/22 01:08:04;;;;;;;16.67;7.87;;;;;;;14.69;56.95;98408.47;5076939;28;20276;-67
2021/01/22 01:10:50;;;;;;;15.15;8.20;;;;;;;14.58;58.34;98398.91;5085459;28;20048;-66
2021/01/22 01:13:34;;;;;;;17.10;8.38;;;;;;;14.64;56.69;98403.16;5074982;28;20376;-66
2021/01/22 01:16:16;;;;;;;28.10;10.98;;;;;;;15.60;53.13;98422.41;5059334;28;20036;-66
2021/01/22 01:18:41;;;;;;;23.63;10.17;;;;;;;16.17;50.47;98422.50;5056116;28;20036;-67
2021/01/22 01:21:07;;;;;;;19.83;8.53;;;;;;;15.47;51.88;98430.09;5074715;28;20054;-66
2021/01/22 01:23:32;;;;;;;25.80;11.73;;;;;;;15.40;52.20;98440.41;5073980;28;20091;-66
2021/01/22 01:25:58;;;;;;;31.27;12.33;;;;;;;15.56;52.26;98432.13;5074593;28;20051;-67
2021/01/22 01:28:23;;;;;;;30.10;11.30;;;;;;;15.31;53.42;98437.53;5073777;28;20427;-67
2021/01/22 01:30:49;;;;;;;32.60;11.83;;;;;;;14.85;53.35;98432.59;5070549;28;20125;-67
2021/01/22 01:33:14;;;;;;;37.57;10.93;;;;;;;14.97;54.27;98435.72;5076716;28;20047;-67
2021/01/22 01:35:40;;;;;;;38.13;13.03;;;;;;;15.29;52.76;98446.97;5093864;28;20249;-67
2021/01/22 01:38:06;;;;;;;52.37;16.10;;;;;;;14.89;53.87;98457.84;5075682;28;20456;-68
2021/01/22 01:40:31;;;;;;;63.80;19.55;;;;;;;14.89;53.78;98458.69;5075849;28;20051;-67
2021/01/22 01:42:57;;;;;;;73.63;22.00;;;;;;;15.00;53.76;98470.16;5059690;28;20047;-67
2021/01/22 01:45:25;;;;;;;64.97;18.97;;;;;;;14.51;53.96;98492.53;5094513;28;20051;-67
2021/01/22 01:47:50;;;;;;;56.38;16.17;;;;;;;14.55;56.88;98493.59;5094550;28;20040;-68
2021/01/22 01:50:16;;;;;;;58.30;16.77;;;;;;;14.87;54.24;98505.78;5094323;28;20042;-67
2021/01/22 01:52:42;;;;;;;31.83;11.68;;;;;;;14.01;57.59;98501.41;5093575;28;20040;-67
2021/01/22 01:55:08;;;;;;;54.45;15.75;;;;;;;13.87;58.82;98518.13;5059620;28;20146;-67
2021/01/22 01:57:34;;;;;;;71.28;20.02;;;;;;;14.62;56.03;98504.84;5093946;28;20055;-67
2021/01/22 02:00:01;;;;;;;61.50;18.75;;;;;;;14.17;57.82;98508.31;5075949;28;20464;-68
2021/01/22 02:02:26;;;;;;;49.55;16.45;;;;;;;15.51;52.70;98499.53;5075259;28;20421;-67
2021/01/22 02:04:52;;;;;;;25.13;10.45;;;;;;;14.30;55.75;98506.09;5076041;28;20093;-69
2021/01/22 02:07:18;;;;;;;23.40;9.90;;;;;;;14.34;54.31;98510.66;5059303;28;20415;-68
2021/01/22 02:09:44;;;;;;;18.23;9.27;;;;;;;14.82;54.33;98508.50;5074895;28;20059;-67
2021/01/22 02:12:10;;;;;;;26.27;10.90;;;;;;;14.88;51.84;98518.13;5093920;28;20068;-67
2021/01/22 02:14:37;;;;;;;25.38;11.80;;;;;;;15.10;52.08;98527.66;5093365;28;20524;-67
2021/01/22 02:17:03;;;;;;;25.88;11.50;;;;;;;14.36;54.91;98525.69;5093914;28;20050;-67
2021/01/22 02:19:58;;;;;;;29.77;12.27;;;;;;;14.26;56.74;98537.31;5074891;28;20024;-66
2021/01/22 02:22:24;;;;;;;28.77;12.73;;;;;;;14.58;54.63;98544.94;5093574;28;20414;-67
2021/01/22 02:24:52;;;;;;;26.20;12.18;;;;;;;14.15;55.96;98542.75;5092859;28;20410;-67
2021/01/22 02:27:19;;;;;;;29.25;14.02;;;;;;;14.40;54.95;98545.56;5093396;28;20185;-67
2021/01/22 02:29:45;;;;;;;;;;;;;;;15.16;53.00;98550.75;5075161;28;20432;-68
2021/01/22 02:32:12;;;;;;;22.07;9.83;;;;;;;15.16;50.94;98561.53;5075276;28;19923;-67
2021/01/22 02:34:42;;;;;;;19.13;9.32;;;;;;;14.31;55.19;98561.50;5074386;28;20272;-67
2021/01/22 02:37:12;;;;;;;17.15;7.97;;;;;;;13.19;60.11;98559.59;5058481;28;20034;-67
2021/01/22 02:39:40;;;;;;;16.23;7.70;;;;;;;13.96;57.16;98563.25;5074465;28;20127;-67
2021/01/22 02:42:08;;;;;;;17.55;8.68;;;;;;;13.77;56.34;98574.56;5093561;28;20035;-68
2021/01/22 02:44:35;;;;;;;15.68;7.22;;;;;;;13.99;56.81;98565.38;5092703;28;20116;-67
2021/01/22 02:47:04;;;;;;;14.95;6.05;;;;;;;13.69;56.87;98575.13;5093551;28;20040;-68
2021/01/22 02:49:30;;;;;;;16.65;5.88;;;;;;;13.26;57.41;98586.94;5073204;28;20387;-64
2021/01/22 02:51:57;;;;;;;6.78;3.63;;;;;;;13.21;58.73;98584.28;5093129;28;20048;-68
2021/01/22 02:54:24;;;;;;;7.18;3.28;;;;;;;13.89;56.90;98598.44;5074747;28;20452;-67
2021/01/22 02:56:56;;;;;;;11.77;3.13;;;;;;;13.56;58.66;98596.09;5092279;28;20645;-68
2021/01/22 02:59:55;;;;;;;5.65;2.20;;;;;;;13.22;59.82;98604.66;5093101;28;20135;-69
2021/01/22 03:02:46;;;;;;;5.60;2.90;;;;;;;13.11;59.95;98605.72;5092664;28;20039;-68
2021/01/22 03:05:15;;;;;;;6.43;2.75;;;;;;;13.16;60.04;98597.69;5074539;28;20517;-67
2021/01/22 03:07:47;;;;;;;7.13;2.10;;;;;;;12.93;61.30;98607.84;5091930;28;20028;-67
2021/01/22 03:10:17;;;;;;;8.02;2.90;;;;;;;12.28;63.66;98609.00;5092140;28;20056;-68
2021/01/22 03:12:48;;;;;;;3.90;2.45;;;;;;;13.38;59.42;98616.22;5092140;28;20036;-67
2021/01/22 03:15:18;;;;;;;3.90;1.60;;;;;;;13.36;57.81;98609.47;5074680;28;20397;-67
2021/01/22 03:17:44;;;;;;;4.75;2.00;;;;;;;13.99;55.33;98611.06;5091715;28;20062;-67
2021/01/22 03:20:19;;;;;;;4.23;1.20;;;;;;;13.40;56.89;98615.94;5074184;28;20088;-67
2021/01/22 03:22:45;;;;;;;3.72;2.22;;;;;;;12.84;60.46;98623.66;5091913;28;20036;-67
2021/01/22 03:25:11;;;;;;;3.53;1.10;;;;;;;13.61;57.13;98625.63;5092151;28;20122;-67
2021/01/22 03:27:37;;;;;;;;;;;;;;;13.14;58.57;98629.31;5092150;28;20261;-67
2021/01/22 03:30:04;;;;;;;4.13;1.30;;;;;;;12.78;60.94;98632.75;5092038;28;19912;-68
2021/01/22 03:32:30;;;;;;;4.85;1.40;;;;;;;12.77;60.89;98633.81;5092105;28;20058;-67
2021/01/22 03:34:55;;;;;;;1.77;0.80;;;;;;;12.59;63.09;98646.66;5091786;28;20036;-67
2021/01/22 03:37:21;;;;;;;2.73;1.30;;;;;;;13.46;57.55;98649.81;5074056;28;20260;-68
2021/01/22 03:39:47;;;;;;;2.42;1.33;;;;;;;13.10;58.86;98641.66;5073277;28;20119;-67
2021/01/22 03:42:12;;;;;;;3.13;1.40;;;;;;;13.48;57.63;98647.66;5092272;28;20036;-67
2021/01/22 03:44:38;;;;;;;3.33;1.93;;;;;;;13.44;56.93;98657.31;5073200;28;20067;-66
2021/01/22 03:47:06;;;;;;;7.40;2.43;;;;;;;12.71;59.54;98653.66;5092256;28;20119;-68
2021/01/22 03:49:32;;;;;;;6.60;3.10;;;;;;;12.92;59.34;98654.53;5091472;28;20028;-67
2021/01/22 03:51:58;;;;;;;;;;;;;;;13.01;60.13;98661.00;5091473;28;20498;-67
2021/01/22 03:54:24;;;;;;;7.57;3.93;;;;;;;13.25;57.94;98657.00;5091736;28;19912;-68
2021/01/22 03:56:49;;;;;;;9.77;5.57;;;;;;;13.43;57.36;98672.63;5091404;28;20578;-68
2021/01/22 03:59:15;;;;;;;10.80;5.67;;;;;;;12.53;61.59;98665.66;5073856;28;20043;-67
2021/01/22 04:01:40;;;;;;;11.70;4.93;;;;;;;12.82;59.93;98679.47;5090607;28;20040;-67
2021/01/22 04:04:06;;;;;;;7.70;4.03;;;;;;;12.26;62.69;98672.75;5091496;28;20053;-69
2021/01/22 04:06:31;;;;;;;9.13;3.70;;;;;;;13.10;58.22;98673.88;5091739;28;20375;-67
2021/01/22 04:08:57;;;;;;;14.07;4.10;;;;;;;12.53;60.72;98684.44;5090906;28;20028;-67
2021/01/22 04:11:23;;;;;;;6.78;3.53;;;;;;;12.86;59.87;98691.25;5073185;28;20070;-67
2021/01/22 04:13:48;;;;;;;9.67;4.10;;;;;;;13.36;57.31;98692.69;5090936;28;20079;-67
2021/01/22 04:16:15;;;;;;;11.73;5.05;;;;;;;13.11;57.51;98700.47;5091762;28;20097;-67
2021/01/22 04:18:40;;;;;;;7.80;3.55;;;;;;;13.62;55.88;98702.44;5091084;28;20525;-67
2021/01/22 04:21:06;;;;;;;8.97;4.53;;;;;;;13.48;55.24;98709.41;5073660;28;20123;-69
2021/01/22 04:23:32;;;;;;;8.43;4.93;;;;;;;13.01;57.22;98703.09;5091782;28;20101;-68
2021/01/22 04:25:58;;;;;;;10.02;4.75;;;;;;;13.41;57.75;98693.53;5090777;28;20341;-67
2021/01/22 04:28:23;;;;;;;9.83;4.70;;;;;;;13.36;55.47;98708.81;5073629;28;20062;-68
2021/01/22 04:30:48;;;;;;;11.60;5.33;;;;;;;13.07;57.64;98706.59;5072987;28;20043;-67
2021/01/22 04:33:14;;;;;;;9.90;4.63;;;;;;;12.84;59.18;98714.88;5091724;28;20042;-68
2021/01/22 04:35:39;;;;;;;11.63;4.73;;;;;;;13.39;58.10;98714.47;5090754;28;20111;-63
2021/01/22 04:38:05;;;;;;;11.07;6.23;;;;;;;13.36;56.04;98712.31;5091968;28;20051;-69
2021/01/22 04:40:30;;;;;;;15.27;7.30;;;;;;;13.67;55.42;98712.38;5073545;28;20391;-70
2021/01/22 04:42:56;;;;;;;16.37;7.50;;;;;;;13.56;55.79;98726.88;5090827;28;20036;-68
2021/01/22 04:45:22;;;;;;;17.35;8.45;;;;;;;13.75;55.09;98717.22;5073198;28;20351;-68
2021/01/22 04:47:48;;;;;;;11.45;7.18;;;;;;;13.93;53.46;98727.69;5072856;28;20436;-67
2021/01/22 04:50:16;;;;;;;12.48;6.78;;;;;;;13.92;53.91;98726.88;5091207;28;20032;-67
2021/01/22 04:52:46;;;;;;;18.92;9.35;;;;;;;13.95;53.42;98728.22;5090651;28;20111;-67
2021/01/22 04:55:16;;;;;;;15.70;9.05;;;;;;;13.20;56.87;98714.97;5073514;28;20113;-67
2021/01/22 04:57:44;;;;;;;16.60;8.50;;;;;;;13.58;54.37;98720.16;5090794;28;20035;-63
2021/01/22 05:00:12;;;;;;;21.83;10.65;;;;;;;12.88;57.45;98720.50;5091192;28;20088;-67
2021/01/22 05:02:38;;;;;;;25.83;10.93;;;;;;;13.46;55.06;98736.50;5091536;28;20033;-67
2021/01/22 05:05:05;;;;;;;17.88;10.20;;;;;;;13.31;55.27;98742.63;5072461;28;20064;-69
2021/01/22 05:07:31;;;;;;;26.00;11.15;;;;;;;13.23;56.57;98734.28;5091448;28;20438;-68
2021/01/22 05:09:57;;;;;;;18.27;10.43;;;;;;;12.23;60.69;98742.97;5072381;28;20044;-69
2021/01/22 05:12:31;;;;;;;24.02;11.82;;;;;;;11.84;63.45;98746.66;5092279;28;20086;-67
2021/01/22 05:14:59;;;;;;;28.42;13.40;;;;;;;12.52;63.41;98752.53;5076089;28;20071;-67
2021/01/22 05:17:24;;;;;;;32.75;13.85;;;;;;;13.51;56.52;98754.53;5095071;28;20111;-68
2021/01/22 05:20:04;;;;;;;25.63;13.63;;;;;;;14.11;52.61;98772.03;5075787;28;20079;-67
2021/01/22 05:22:30;;;;;;;30.50;14.70;;;;;;;13.51;54.43;98767.16;5076914;28;20047;-68
2021/01/22 05:25:01;;;;;;;29.33;15.63;;;;;;;12.97;57.61;98755.69;5094267;28;20036;-69
2021/01/22 05:27:27;;;;;;;30.85;16.17;;;;;;;13.29;56.97;98768.16;5094794;28;20728;-68
2021/01/22 05:30:04;;;;;;;25.53;14.47;;;;;;;12.94;57.46;98773.13;5094096;28;20043;-68
2021/01/22 05:32:31;;;;;;;29.98;15.93;;;;;;;13.90;54.26;98778.22;5094597;28;20063;-68
2021/01/22 05:34:57;;;;;;;28.13;16.23;;;;;;;13.11;56.64;98772.91;5094069;28;20043;-70
2021/01/22 05:37:24;;;;;;;37.43;16.77;;;;;;;13.59;54.67;98761.25;5059787;28;20123;-70
2021/01/22 05:40:12;;;;;;;39.05;17.92;;;;;;;11.94;63.91;98787.97;5093593;28;20066;-68
2021/01/22 05:42:55;;;;;;;29.77;16.67;;;;;;;11.90;64.37;98787.69;5076548;28;20063;-70
2021/01/22 05:45:41;;;;;;;35.47;18.30;;;;;;;12.96;58.66;98780.88;5094390;28;20455;-68
2021/01/22 05:48:24;;;;;;;32.83;17.65;;;;;;;13.62;54.78;98772.28;5093670;28;20101;-68
2021/01/22 05:50:57;;;;;;;40.35;18.65;;;;;;;13.59;54.87;98778.16;5093367;28;20447;-67
2021/01/22 05:53:24;;;;;;;29.80;17.17;;;;;;;13.68;53.89;98786.50;5094087;28;20032;-67
2021/01/22 05:56:06;;;;;;;;;;;;;;;13.03;55.81;98781.44;5072862;28;20020;-67
2021/01/22 05:58:32;;;;;;;36.33;18.10;;;;;;;14.55;51.03;98797.53;5082368;28;19912;-67
2021/01/22 06:01:17;;;;;;;40.75;22.10;;;;;;;13.85;53.07;98797.03;5038799;28;20472;-68
2021/01/22 06:03:51;;;;;;;42.58;21.45;;;;;;;13.84;53.28;98799.97;5068784;28;20172;-69
2021/01/22 06:06:17;;;;;;;40.40;20.58;;;;;;;13.44;54.56;98807.69;5094334;28;20036;-68
2021/01/22 06:08:46;;;;;;;;;;;;;;;12.93;57.08;98809.06;5075855;28;20024;-67
2021/01/22 06:11:13;;;;;;;41.38;20.15;;;;;;;13.82;53.72;98800.22;5092817;28;20363;-67
2021/01/22 06:13:38;;;;;;;;;;;;;;;13.92;52.64;98810.16;5094067;28;20036;-68
2021/01/22 06:16:04;;;;;;;43.63;19.77;;;;;;;13.61;53.42;98808.25;5081941;28;19924;-68
2021/01/22 06:18:31;;;;;;;38.17;20.30;;;;;;;13.87;52.75;98815.53;5055441;28;20115;-68
2021/01/22 06:21:13;;;;;;;38.95;19.42;;;;;;;13.63;53.48;98813.34;5054718;28;20040;-69
2021/01/22 06:23:39;;;;;;;35.97;18.50;;;;;;;13.86;53.11;98811.25;5073232;28;20047;-68
2021/01/22 06:26:06;;;;;;;34.75;19.13;;;;;;;13.55;53.29;98812.00;5054664;28;20039;-69
2021/01/22 06:28:32;;;;;;;;;;;;;;;14.27;51.97;98819.34;5085212;28;20116;-68
2021/01/22 06:30:57;;;;;;;36.95;19.45;;;;;;;13.79;52.83;98818.75;5092536;28;19916;-68
2021/01/22 06:33:23;;;;;;;36.43;18.33;;;;;;;14.58;50.07;98829.25;5093708;28;20050;-67
2021/01/22 06:35:50;;;;;;;39.92;19.70;;;;;;;14.22;50.16;98821.22;5093475;28;20181;-69
2021/01/22 06:38:20;;;;;;;38.35;19.20;;;;;;;13.45;53.99;98825.41;5093044;28;20040;-68
2021/01/22 06:40:46;;;;;;;36.92;18.17;;;;;;;14.04;51.60;98831.41;5093645;28;20063;-69
2021/01/22 06:43:11;;;;;;;36.23;19.63;;;;;;;13.87;52.38;98834.34;5092946;28;20087;-67
2021/01/22 06:45:38;;;;;;;36.47;18.13;;;;;;;14.29;50.85;98830.63;5093418;28;20426;-69
2021/01/22 06:48:07;;;;;;;;;;;;;;;14.23;51.35;98845.16;5092730;28;20032;-69
2021/01/22 06:50:35;;;;;;;42.58;17.38;;;;;;;13.54;53.57;98844.50;5057957;28;19916;-69
2021/01/22 06:53:09;;;;;;;30.90;17.17;;;;;;;13.49;53.57;98845.28;5092432;28;20135;-67
2021/01/22 06:55:49;;;;;;;32.22;18.23;;;;;;;12.73;56.61;98864.22;5093244;28;20040;-67
2021/01/22 06:58:28;;;;;;;32.28;17.73;;;;;;;12.67;58.20;98857.19;5092126;28;20047;-70
2021/01/22 07:00:58;;;;;;;37.15;17.88;;;;;;;12.87;57.36;98853.84;5091855;28;20476;-67
2021/01/22 07:03:36;;;;;;;38.55;18.38;;;;;;;13.43;54.73;98849.03;5092843;28;20035;-69
2021/01/22 07:06:03;;;;;;;34.50;17.23;;;;;;;13.70;52.97;98859.56;5088721;28;20062;-68
2021/01/22 07:08:59;;;;;;;31.73;17.50;;;;;;;12.48;58.01;98873.69;5054618;28;20038;-69
2021/01/22 07:11:25;;;;;;;39.90;18.73;;;;;;;13.06;56.69;98874.88;5071880;28;20106;-69
2021/01/22 07:13:52;;;;;;;37.33;18.98;;;;;;;13.50;53.76;98870.28;5054468;28;20068;-69
2021/01/22 07:16:17;;;;;;;;;;;;;;;13.78;52.84;98871.69;5054668;28;20092;-69
2021/01/22 07:18:57;;;;;;;34.33;16.50;;;;;;;14.19;51.47;98873.66;5072298;28;19959;-68
2021/01/22 07:21:24;;;;;;;33.90;17.30;;;;;;;13.60;53.32;98881.81;5054161;28;20056;-68
2021/01/22 07:24:00;;;;;;;29.60;17.38;;;;;;;13.25;53.86;98880.59;5071821;28;20488;-69
2021/01/22 07:26:37;;;;;;;35.00;16.65;;;;;;;14.14;51.52;98895.13;5062785;28;20086;-68
2021/01/22 07:29:26;;;;;;;37.22;17.30;;;;;;;14.17;50.18;98899.97;5079876;28;20040;-68
2021/01/22 07:31:52;;;;;;;29.73;16.83;;;;;;;14.23;50.25;98898.91;5101467;28;20377;-68
2021/01/22 07:34:36;;;;;;;33.40;16.90;;;;;;;14.90;47.87;98895.41;5099996;28;20426;-68
2021/01/22 07:37:07;;;;;;;36.95;18.27;;;;;;;14.48;49.02;98895.41;5079765;28;20032;-69
2021/01/22 07:39:34;;;;;;;26.35;15.15;;;;;;;14.80;48.28;98911.59;5100839;28;20118;-68
2021/01/22 07:42:04;;;;;;;36.47;17.10;;;;;;;14.44;49.02;98910.47;5097182;28;20101;-69
2021/01/22 07:44:30;;;;;;;34.25;16.73;;;;;;;14.17;50.78;98930.34;5101471;28;20054;-68
2021/01/22 07:46:56;;;;;;;30.63;15.85;;;;;;;14.18;49.01;98929.28;5099633;28;20117;-61
2021/01/22 07:49:22;;;;;;;29.23;15.32;;;;;;;14.51;48.39;98926.34;5091792;28;20090;-69
2021/01/22 07:51:47;;;;;;;37.30;16.43;;;;;;;14.44;49.21;98926.63;5073800;28;20042;-68
2021/01/22 07:54:13;;;;;;;37.88;15.07;;;;;;;14.41;49.01;98923.66;5091264;28;20117;-68
2021/01/22 07:56:40;;;;;;;29.38;15.98;;;;;;;13.32;52.14;98934.84;5091931;28;20036;-69
2021/01/22 07:59:06;;;;;;;;;;;;;;;13.90;51.69;98934.06;5040494;28;20040;-69
2021/01/22 08:01:31;;;;;;;27.17;12.23;;;;;;;13.54;51.80;98933.91;5091764;28;19912;-68
2021/01/22 08:03:58;;;;;;;36.80;15.68;;;;;;;13.96;51.51;98937.56;5073210;28;20138;-61
2021/01/22 08:06:23;;;;;;;38.47;17.27;;;;;;;14.41;49.86;98943.28;5073576;28;20044;-68
2021/01/22 08:09:05;;;;;;;36.00;16.50;;;;;;;14.89;48.17;98943.06;5091786;28;20042;-69
2021/01/22 08:11:30;;;;;;;34.15;15.93;;;;;;;13.49;52.96;98952.69;5073414;28;20078;-69
2021/01/22 08:13:56;;;;;;;38.20;16.45;;;;;;;13.27;55.31;98958.97;5073476;28;20488;-69
2021/01/22 08:16:22;;;;;;;35.17;17.47;;;;;;;13.25;54.72;98961.13;5090791;28;20036;-68
2021/01/22 08:18:48;;;;;;;30.88;14.43;;;;;;;14.47;49.85;98958.34;5073507;28;20140;-68
2021/01/22 08:21:13;;;;;;;35.13;17.40;;;;;;;14.69;49.00;98951.13;5090861;28;20147;-67
2021/01/22 08:23:42;;;;;;;29.33;14.70;;;;;;;14.81;48.51;98967.81;5073554;28;20460;-68
2021/01/22 08:26:11;;;;;;;31.15;14.15;;;;;;;15.13;48.12;98979.38;5072513;28;20040;-68
2021/01/22 08:28:39;;;;;;;31.67;15.15;;;;;;;13.91;51.70;98973.28;5073387;28;20032;-69
2021/01/22 08:31:10;;;;;;;29.38;15.57;;;;;;;15.05;47.80;98981.53;5090655;28;20036;-68
2021/01/22 08:33:36;;;;;;;26.60;14.27;;;;;;;14.07;50.99;98983.28;5073392;28;20104;-70
2021/01/22 08:36:03;;;;;;;30.95;15.23;;;;;;;14.31;50.98;98992.47;5090618;28;20112;-66
2021/01/22 08:38:28;;;;;;;;;;;;;;;14.34;51.30;98988.47;5091652;28;20036;-67
2021/01/22 08:40:54;;;;;;;36.30;15.93;;;;;;;14.89;49.41;98988.81;5091493;28;20359;-68
2021/01/22 08:43:19;;;;;;;36.73;16.27;;;;;;;13.75;52.52;98993.91;5090608;28;20032;-68
2021/01/22 08:46:06;;;;;;;27.57;14.93;;;;;;;14.51;50.55;98990.91;5091479;28;20035;-68
2021/01/22 08:48:33;;;;;;;29.63;14.23;;;;;;;14.24;50.66;99000.00;5095514;28;20040;-68
2021/01/22 08:51:00;;;;;;;31.65;15.35;;;;;;;14.16;51.52;98992.44;5095388;28;20032;-69
2021/01/22 08:53:26;;;;;;;30.40;14.25;;;;;;;14.15;51.47;99005.06;5094542;28;20126;-69
2021/01/22 08:56:11;;;;;;;31.10;16.33;;;;;;;13.54;53.46;99014.47;5095383;28;20020;-69
2021/01/22 08:59:00;;;;;;;29.67;14.77;;;;;;;13.43;54.93;99015.50;5077122;28;20062;-70
2021/01/22 09:01:47;;;;;;;30.52;14.82;;;;;;;12.95;57.27;99020.75;5094653;28;20038;-68
2021/01/22 09:04:17;;;;;;;21.10;11.57;;;;;;;13.66;54.62;99018.84;5094214;28;20051;-69
2021/01/22 09:06:50;;;;;;;33.58;15.90;;;;;;;13.25;55.68;99025.53;5076820;28;20181;-67
2021/01/22 09:09:34;;;;;;;29.52;14.88;;;;;;;13.57;53.62;99034.66;5076121;28;20044;-68
2021/01/22 09:12:07;;;;;;;36.78;13.80;;;;;;;13.91;52.58;99037.78;5076591;28;20052;-69
2021/01/22 09:14:47;;;;;;;27.50;13.20;;;;;;;13.92;52.26;99035.88;5076584;28;20107;-69
2021/01/22 09:17:24;;;;;;;28.77;14.88;;;;;;;13.17;56.22;99050.19;5076306;28;20036;-69
2021/01/22 09:19:58;;;;;;;28.17;15.60;;;;;;;13.18;57.08;99047.22;5094748;28;20403;-68
2021/01/22 09:22:30;;;;;;;25.02;15.07;;;;;;;12.80;59.22;99050.94;5059184;28;20044;-69
2021/01/22 09:24:56;;;;;;;31.30;14.52;;;;;;;13.50;55.80;99058.25;5076651;28;20415;-70
2021/01/22 09:27:21;;;;;;;28.67;15.10;;;;;;;13.69;56.66;99072.03;5075970;28;20028;-68
2021/01/22 09:29:47;;;;;;;27.43;13.77;;;;;;;14.05;54.01;99074.91;5094436;28;20123;-69
2021/01/22 09:32:13;;;;;;;26.60;13.35;;;;;;;14.42;52.12;99071.31;5093805;28;20043;-68
2021/01/22 09:34:39;;;;;;;26.98;13.43;;;;;;;13.59;55.82;99073.59;5076548;28;20038;-69
2021/01/22 09:37:05;;;;;;;23.15;13.07;;;;;;;15.33;51.02;99081.66;5094475;28;20040;-68
2021/01/22 09:39:30;;;;;;;26.42;12.63;;;;;;;14.82;53.14;99082.44;5094146;28;20533;-69
2021/01/22 09:41:56;;;;;;;18.75;10.82;;;;;;;14.78;52.51;99070.59;5076766;28;20036;-69
2021/01/22 09:44:21;;;;;;;22.87;9.47;;;;;;;15.08;51.92;99087.06;5093655;28;20036;-69
2021/01/22 09:46:47;;;;;;;25.73;10.03;;;;;;;15.03;50.72;99093.25;5076439;28;20291;-69
2021/01/22 09:49:13;;;;;;;26.85;10.57;;;;;;;15.73;49.77;99087.28;5075635;28;20459;-69
2021/01/22 09:51:38;;;;;;;18.40;9.33;;;;;;;15.61;49.79;99098.34;5094521;28;20036;-68
2021/01/22 09:54:04;;;;;;;18.23;9.03;;;;;;;16.22;48.38;99100.38;5094471;28;20032;-69
2021/01/22 09:56:29;;;;;;;15.67;7.13;;;;;;;15.93;49.18;99111.81;5093353;28;20355;-68
2021/01/22 09:58:55;;;;;;;16.83;8.67;;;;;;;16.00;48.25;99109.63;5093912;28;20085;-68
2021/01/22 10:01:20;;;;;;;12.43;6.93;;;;;;;17.18;46.09;99115.53;5103778;28;20039;-67
2021/01/22 10:03:46;;;;;;;17.33;8.50;;;;;;;17.36;46.05;99132.16;5102959;28;20425;-68
2021/01/22 10:06:13;;;;;;;15.63;7.27;;;;;;;17.86;43.25;99119.25;5103002;28;20070;-68
2021/01/22 10:08:39;;;;;;;13.30;7.25;;;;;;;17.04;45.18;99121.56;5086343;28;20024;-70
2021/01/22 10:11:05;;;;;;;17.70;6.67;;;;;;;16.69;47.32;99128.78;5084003;28;20173;-70
2021/01/22 10:13:30;;;;;;;18.77;6.97;;;;;;;16.32;47.12;99128.13;5103367;28;20490;-69
2021/01/22 10:15:57;;;;;;;18.20;7.47;;;;;;;17.04;46.56;99129.66;5098185;28;20427;-68
2021/01/22 10:18:23;;;;;;;12.15;6.30;;;;;;;16.99;44.96;99137.81;5092490;28;20032;-68
2021/01/22 10:20:52;;;;;;;13.00;5.95;;;;;;;18.43;42.45;99137.56;5093073;28;20476;-68
2021/01/22 10:23:17;;;;;;;17.52;6.57;;;;;;;19.04;42.52;99139.81;5074557;28;20040;-69
2021/01/22 10:25:43;;;;;;;15.80;5.13;;;;;;;17.11;43.46;99137.44;5093563;28;20047;-69
2021/01/22 10:28:08;;;;;;;20.97;6.63;;;;;;;17.48;45.01;99148.78;5093000;28;20050;-69
2021/01/22 10:30:34;;;;;;;16.83;6.17;;;;;;;18.36;42.07;99145.25;5074424;28;20038;-70
2021/01/22 10:32:59;;;;;;;17.00;6.07;;;;;;;18.37;41.63;99146.06;5093164;28;20097;-68
2021/01/22 10:35:25;;;;;;;13.00;6.33;;;;;;;18.53;41.31;99149.38;5092160;28;20549;-69
2021/01/22 10:37:51;;;;;;;18.50;5.50;;;;;;;17.10;43.97;99156.66;5074560;28;20036;-69
2021/01/22 10:40:16;;;;;;;17.42;5.03;;;;;;;17.12;44.83;99154.47;5100190;28;20126;-69
2021/01/22 10:42:42;;;;;;;15.55;5.90;;;;;;;16.87;44.53;99158.91;5084805;28;20035;-69
2021/01/22 10:45:08;;;;;;;15.20;5.55;;;;;;;17.53;44.08;99151.47;5101621;28;20048;-69
2021/01/22 10:47:34;;;;;;;13.25;4.72;;;;;;;16.65;44.55;99173.59;5100718;28;20063;-68
2021/01/22 10:50:00;;;;;;;18.42;6.47;;;;;;;17.87;43.74;99164.13;5103107;28;20042;-69
2021/01/22 10:52:25;;;;;;;9.00;4.80;;;;;;;18.08;41.86;99169.38;5100686;28;20040;-69
2021/01/22 10:54:51;;;;;;;15.90;5.50;;;;;;;19.30;39.42;99161.88;5066524;28;20031;-69
2021/01/22 10:57:17;;;;;;;15.67;4.90;;;;;;;20.42;38.73;99169.47;5102103;28;20028;-69
2021/01/22 10:59:42;;;;;;;11.75;5.32;;;;;;;19.16;40.08;99180.78;5065746;28;20396;-68
2021/01/22 11:02:09;;;;;;;16.77;4.90;;;;;;;18.27;42.99;99182.16;5101394;28;20036;-68
2021/01/22 11:04:35;;;;;;;17.25;5.70;;;;;;;16.77;44.45;99186.78;5066765;28;20127;-68
2021/01/22 11:07:03;;;;;;;15.77;4.43;;;;;;;16.88;45.50;99182.13;5065178;28;20035;-67
2021/01/22 11:09:32;;;;;;;11.15;4.85;;;;;;;17.13;45.30;99170.38;5100503;28;20036;-68
2021/01/22 11:11:57;;;;;;;14.43;5.93;;;;;;;16.98;45.11;99174.00;5101464;28;20518;-68
2021/01/22 11:14:23;;;;;;;10.03;5.33;;;;;;;17.91;43.81;99176.00;5078780;28;20261;-68
2021/01/22 11:16:48;;;;;;;9.20;4.63;;;;;;;19.04;39.39;99186.66;5101674;28;20501;-68
2021/01/22 11:19:14;;;;;;;11.03;4.93;;;;;;;20.24;38.78;99184.72;5101185;28;20150;-66
2021/01/22 11:21:39;;;;;;;15.83;4.33;;;;;;;19.86;38.43;99197.31;5100370;28;20036;-68
2021/01/22 11:24:05;;;;;;;13.63;4.93;;;;;;;19.02;40.63;99193.44;5101780;28;20035;-67
2021/01/22 11:26:32;;;;;;;13.05;5.03;;;;;;;19.16;39.55;99217.94;5082398;28;20452;-68
2021/01/22 11:28:57;;;;;;;;;;;;;;;20.88;37.38;99203.03;5082018;28;20032;-68
2021/01/22 11:31:22;;;;;;;7.83;3.87;;;;;;;19.24;39.99;99217.25;5081145;28;20271;-67
2021/01/22 11:33:48;;;;;;;11.17;4.30;;;;;;;19.47;38.75;99220.19;5101241;28;20065;-67